createdAt,value
2023-03-20T00:01:22.440Z,100.00
2023-03-20T00:03:50.353Z,100.00
2023-03-20T00:06:18.932Z,100.00
2023-03-20T00:08:48.460Z,100.00
2023-03-20T00:11:30.430Z,100.00
2023-03-20T00:13:59.816Z,100.00
2023-03-20T00:16:32.834Z,100.00
2023-03-20T00:19:00.628Z,100.00
2023-03-20T00:21:28.541Z,100.00
2023-03-20T00:23:56.683Z,100.00
2023-03-20T00:26:28.265Z,100.00
2023-03-20T00:28:56.476Z,100.00
2023-03-20T00:31:27.375Z,100.00
2023-03-20T00:33:58.743Z,100.00
2023-03-20T00:36:26.539Z,100.00
2023-03-20T00:38:54.544Z,100.00
2023-03-20T00:41:26.691Z,100.00
2023-03-20T00:43:58.952Z,100.00
2023-03-20T00:46:27.311Z,100.00
2023-03-20T00:48:56.915Z,100.00
2023-03-20T00:51:24.647Z,100.00
2023-03-20T00:53:52.360Z,100.00
2023-03-20T00:56:34.281Z,100.00
2023-03-20T00:59:04.162Z,100.00
2023-03-20T01:01:33.004Z,100.00
2023-03-20T01:04:02.118Z,100.00
2023-03-20T01:06:31.377Z,100.00
2023-03-20T01:09:00.145Z,100.00
2023-03-20T01:11:28.608Z,100.00
2023-03-20T01:13:57.241Z,100.00
2023-03-20T01:16:27.134Z,100.00
2023-03-20T01:18:55.758Z,100.00
2023-03-20T01:21:24.868Z,100.00
2023-03-20T01:23:52.660Z,100.00
2023-03-20T01:26:24.123Z,100.00
2023-03-20T01:28:52.250Z,100.00
2023-03-20T01:31:20.845Z,100.00
2023-03-20T01:33:48.641Z,100.00
2023-03-20T01:36:19.126Z,100.00
2023-03-20T01:38:51.185Z,100.00
2023-03-20T01:41:19.307Z,100.00
2023-03-20T01:43:47.180Z,100.00
2023-03-20T01:46:18.530Z,100.00
2023-03-20T01:49:02.486Z,100.00
2023-03-20T01:51:33.001Z,100.00
2023-03-20T01:54:06.743Z,100.00
2023-03-20T01:56:37.183Z,100.00
2023-03-20T01:59:11.874Z,100.00
2023-03-20T02:01:41.628Z,100.00
2023-03-20T02:04:10.163Z,100.00
2023-03-20T02:06:40.313Z,100.00
2023-03-20T02:09:10.574Z,100.00
2023-03-20T02:11:41.168Z,100.00
2023-03-20T02:14:09.632Z,100.00
2023-03-20T02:16:37.448Z,100.00
2023-03-20T02:19:08.341Z,100.00
2023-03-20T02:22:05.476Z,100.00
2023-03-20T02:25:15.524Z,100.00
2023-03-20T02:28:01.063Z,100.00
2023-03-20T02:30:47.753Z,100.00
2023-03-20T02:33:51.983Z,100.00
2023-03-20T02:37:08.658Z,100.00
2023-03-20T02:39:52.093Z,100.00
2023-03-20T02:42:28.661Z,100.00
2023-03-20T02:45:05.460Z,100.00
2023-03-20T02:47:42.208Z,100.00
2023-03-20T02:50:17.460Z,100.00
2023-03-20T02:52:50.719Z,100.00
2023-03-20T02:55:27.428Z,100.00
2023-03-20T02:58:00.597Z,100.00
2023-03-20T03:00:33.536Z,100.00
2023-03-20T03:03:07.979Z,100.00
2023-03-20T03:05:39.597Z,100.00
2023-03-20T03:08:10.827Z,100.00
2023-03-20T03:10:45.077Z,100.00
2023-03-20T03:13:17.009Z,100.00
2023-03-20T03:15:47.281Z,100.00
2023-03-20T03:18:19.076Z,100.00
2023-03-20T03:20:49.165Z,100.00
2023-03-20T03:23:31.640Z,100.00
2023-03-20T03:26:04.168Z,100.00
2023-03-20T03:28:37.596Z,100.00
2023-03-20T03:31:08.375Z,100.00
2023-03-20T03:33:39.543Z,100.00
2023-03-20T03:36:15.041Z,100.00
2023-03-20T03:38:50.662Z,100.00
2023-03-20T03:41:30.007Z,100.00
2023-03-20T03:44:06.542Z,100.00
2023-03-20T03:46:44.489Z,100.00
2023-03-20T03:49:17.472Z,100.00
2023-03-20T03:51:49.977Z,100.00
2023-03-20T03:54:21.211Z,100.00
2023-03-20T03:56:52.268Z,100.00
2023-03-20T03:59:24.900Z,100.00
2023-03-20T04:01:54.339Z,100.00
2023-03-20T04:04:24.868Z,100.00
2023-03-20T04:06:52.857Z,100.00
2023-03-20T04:09:20.612Z,100.00
2023-03-20T04:11:53.020Z,100.00
2023-03-20T04:14:21.187Z,100.00
2023-03-20T04:16:49.105Z,100.00
2023-03-20T04:19:16.921Z,100.00
2023-03-20T04:21:45.679Z,100.00
2023-03-20T04:24:13.457Z,100.00
2023-03-20T04:26:41.192Z,100.00
2023-03-20T04:29:10.423Z,100.00
2023-03-20T04:31:38.197Z,100.00
2023-03-20T04:34:06.192Z,100.00
2023-03-20T04:36:34.004Z,100.00
2023-03-20T04:39:01.820Z,100.00
2023-03-20T04:41:29.543Z,100.00
2023-03-20T04:43:57.312Z,100.00
2023-03-20T04:46:26.493Z,100.00
2023-03-20T04:48:54.251Z,100.00
2023-03-20T04:51:22.014Z,100.00
2023-03-20T04:53:49.739Z,100.00
2023-03-20T04:56:17.531Z,100.00
2023-03-20T04:58:45.343Z,100.00
2023-03-20T05:01:13.117Z,100.00
2023-03-20T05:03:42.250Z,100.00
2023-03-20T05:06:11.515Z,100.00
2023-03-20T05:08:39.254Z,100.00
2023-03-20T05:11:07.840Z,100.00
2023-03-20T05:13:35.782Z,100.00
2023-03-20T05:16:03.526Z,100.00
2023-03-20T05:18:31.411Z,100.00
2023-03-20T05:21:01.265Z,100.00
2023-03-20T05:23:29.032Z,100.00
2023-03-20T05:25:56.993Z,100.00
2023-03-20T05:28:24.764Z,100.00
2023-03-20T05:30:52.515Z,100.00
2023-03-20T05:33:20.438Z,100.00
2023-03-20T05:35:48.349Z,100.00
2023-03-20T05:38:17.458Z,100.00
2023-03-20T05:40:45.190Z,100.00
2023-03-20T05:43:12.984Z,100.00
2023-03-20T05:45:40.725Z,100.00
2023-03-20T05:48:08.497Z,100.00
2023-03-20T05:50:36.292Z,100.00
2023-03-20T05:53:04.154Z,100.00
2023-03-20T05:55:34.169Z,100.00
2023-03-20T05:58:02.168Z,100.00
2023-03-20T06:00:29.916Z,100.00
2023-03-20T06:02:57.673Z,100.00
2023-03-20T06:05:25.541Z,100.00
2023-03-20T06:07:53.262Z,100.00
2023-03-20T06:10:21.105Z,100.00
2023-03-20T06:12:50.292Z,100.00
2023-03-20T06:15:18.252Z,100.00
2023-03-20T06:17:45.985Z,100.00
2023-03-20T06:20:14.372Z,100.00
2023-03-20T06:22:42.726Z,100.00
2023-03-20T06:25:11.380Z,100.00
2023-03-20T06:27:39.459Z,100.00
2023-03-20T06:30:11.118Z,100.00
2023-03-20T06:32:39.060Z,100.00
2023-03-20T06:35:08.066Z,100.00
2023-03-20T06:37:37.309Z,100.00
2023-03-20T06:40:06.435Z,100.00
2023-03-20T06:42:34.269Z,100.00
2023-03-20T06:45:02.050Z,100.00
2023-03-20T06:47:31.162Z,100.00
2023-03-20T06:49:59.016Z,100.00
2023-03-20T06:52:26.759Z,100.00
2023-03-20T06:54:54.485Z,100.00
2023-03-20T06:57:22.312Z,100.00
2023-03-20T06:59:50.051Z,100.00
2023-03-20T07:02:18.030Z,100.00
2023-03-20T07:04:47.172Z,100.00
2023-03-20T07:07:15.000Z,100.00
2023-03-20T07:09:43.270Z,100.00
2023-03-20T07:12:14.806Z,100.00
2023-03-20T07:14:42.878Z,100.00
2023-03-20T07:17:11.680Z,99.86
2023-03-20T07:19:40.174Z,100.00
2023-03-20T07:22:19.123Z,99.86
2023-03-20T07:24:47.425Z,98.78
2023-03-20T07:27:15.258Z,98.63
2023-03-20T07:29:43.062Z,97.59
2023-03-20T07:32:11.508Z,96.31
2023-03-20T07:34:41.518Z,95.47
2023-03-20T07:37:10.864Z,93.85
2023-03-20T07:39:38.703Z,94.12
2023-03-20T07:42:06.719Z,95.07
2023-03-20T07:44:34.647Z,94.32
2023-03-20T07:47:02.558Z,95.45
2023-03-20T07:49:30.301Z,95.18
2023-03-20T07:51:58.090Z,95.94
2023-03-20T07:54:27.610Z,95.35
2023-03-20T07:56:55.371Z,94.48
2023-03-20T07:59:23.130Z,94.96
2023-03-20T08:01:51.391Z,92.71
2023-03-20T08:04:22.311Z,92.33
2023-03-20T08:06:51.119Z,90.75
2023-03-20T08:09:19.356Z,91.79
2023-03-20T08:11:48.586Z,92.07
2023-03-20T08:14:16.438Z,91.67
2023-03-20T08:16:44.265Z,90.41
2023-03-20T08:19:12.298Z,91.17
2023-03-20T08:21:40.613Z,90.75
2023-03-20T08:24:09.176Z,90.59
2023-03-20T08:26:37.257Z,89.70
2023-03-20T08:29:06.351Z,89.95
2023-03-20T08:31:34.205Z,89.24
2023-03-20T08:34:02.130Z,88.46
2023-03-20T08:36:29.911Z,88.35
2023-03-20T08:38:57.715Z,87.94
2023-03-20T08:41:25.453Z,86.38
2023-03-20T08:43:53.195Z,86.70
2023-03-20T08:46:22.461Z,87.45
2023-03-20T08:48:50.271Z,87.05
2023-03-20T08:51:18.036Z,86.59
2023-03-20T08:53:45.951Z,85.03
2023-03-20T08:56:13.694Z,85.74
2023-03-20T08:58:41.458Z,85.38
2023-03-20T09:01:10.704Z,84.48
2023-03-20T09:03:39.906Z,83.94
2023-03-20T09:06:09.583Z,82.74
2023-03-20T09:08:37.513Z,81.56
2023-03-20T09:11:08.142Z,82.35
2023-03-20T09:13:36.023Z,81.88
2023-03-20T09:16:04.485Z,81.49
2023-03-20T09:18:32.336Z,81.72
2023-03-20T09:21:01.583Z,80.43
2023-03-20T09:23:29.484Z,81.25
2023-03-20T09:25:57.257Z,81.43
2023-03-20T09:28:24.987Z,82.21
2023-03-20T09:30:57.179Z,83.01
2023-03-20T09:33:25.568Z,82.28
2023-03-20T09:35:53.460Z,82.59
2023-03-20T09:38:22.590Z,81.86
2023-03-20T09:40:53.842Z,81.83
2023-03-20T09:43:33.102Z,80.61
2023-03-20T09:46:09.857Z,79.88
2023-03-20T09:48:46.033Z,80.84
2023-03-20T09:51:22.655Z,79.86
2023-03-20T09:54:01.082Z,78.45
2023-03-20T09:56:30.936Z,77.93
2023-03-20T09:59:00.590Z,77.34
2023-03-20T10:01:32.568Z,77.01
2023-03-20T10:04:03.783Z,77.79
2023-03-20T10:06:32.015Z,77.84
2023-03-20T10:09:01.245Z,76.96
2023-03-20T10:11:58.289Z,76.63
2023-03-20T10:14:35.126Z,76.12
2023-03-20T10:17:15.576Z,77.19
2023-03-20T10:19:47.276Z,75.93
2023-03-20T10:22:25.346Z,75.58
2023-03-20T10:24:58.411Z,75.60
2023-03-20T10:27:30.473Z,75.08
2023-03-20T10:30:14.831Z,75.11
2023-03-20T10:32:50.904Z,73.97
2023-03-20T10:35:24.775Z,74.56
2023-03-20T10:38:14.003Z,74.74
2023-03-20T10:40:44.468Z,73.00
2023-03-20T10:43:17.866Z,72.25
2023-03-20T10:45:48.158Z,71.26
2023-03-20T10:48:27.108Z,72.10
2023-03-20T10:50:58.016Z,72.54
2023-03-20T10:53:32.696Z,71.02
2023-03-20T10:56:06.900Z,71.12
2023-03-20T10:58:39.575Z,70.48
2023-03-20T11:01:07.785Z,70.44
2023-03-20T11:03:39.648Z,70.16
2023-03-20T11:06:15.283Z,69.10
2023-03-20T11:08:47.599Z,69.39
2023-03-20T11:11:23.424Z,70.73
2023-03-20T11:13:51.189Z,70.51
2023-03-20T11:16:24.640Z,70.40
2023-03-20T11:18:53.978Z,70.42
2023-03-20T11:21:26.060Z,70.70
2023-03-20T11:23:55.117Z,71.28
2023-03-20T11:26:36.054Z,67.84
2023-03-20T11:29:08.211Z,68.39
2023-03-20T11:31:38.846Z,64.98
2023-03-20T11:34:24.442Z,66.10
2023-03-20T11:37:09.261Z,65.76
2023-03-20T11:39:38.308Z,64.57
2023-03-20T11:42:24.448Z,64.88
2023-03-20T11:44:59.501Z,64.96
2023-03-20T11:47:29.795Z,65.60
2023-03-20T11:49:59.982Z,65.30
2023-03-20T11:52:31.061Z,64.32
2023-03-20T11:55:01.322Z,64.26
2023-03-20T11:57:39.198Z,62.81
2023-03-20T12:00:18.015Z,63.64
2023-03-20T12:02:46.215Z,63.97
2023-03-20T12:05:29.533Z,63.55
2023-03-20T12:07:59.214Z,61.33
2023-03-20T12:10:31.709Z,62.49
2023-03-20T12:13:03.833Z,62.32
2023-03-20T12:15:35.459Z,62.14
2023-03-20T12:18:09.720Z,63.08
2023-03-20T12:20:42.303Z,63.65
2023-03-20T12:23:15.435Z,63.52
2023-03-20T12:25:50.344Z,63.87
2023-03-20T12:28:27.192Z,64.66
2023-03-20T12:31:05.416Z,62.19
2023-03-20T12:33:42.015Z,63.03
2023-03-20T12:36:15.563Z,64.39
2023-03-20T12:38:44.301Z,65.53
2023-03-20T12:41:18.817Z,65.35
2023-03-20T12:44:12.064Z,66.08
2023-03-20T12:46:45.210Z,66.68
2023-03-20T12:49:26.589Z,66.93
2023-03-20T12:52:02.270Z,66.31
2023-03-20T12:54:44.150Z,66.27
2023-03-20T12:57:22.264Z,66.33
2023-03-20T13:00:06.340Z,66.34
2023-03-20T13:02:50.753Z,65.89
2023-03-20T13:05:32.210Z,65.97
2023-03-20T13:08:16.058Z,65.25
2023-03-20T13:10:50.398Z,65.82
2023-03-20T13:13:28.099Z,65.35
2023-03-20T13:16:08.496Z,64.87
2023-03-20T13:18:48.492Z,65.97
2023-03-20T13:21:25.357Z,65.87
2023-03-20T13:24:01.787Z,65.30
2023-03-20T13:26:38.143Z,65.73
2023-03-20T13:29:12.638Z,65.21
2023-03-20T13:31:57.712Z,64.90
2023-03-20T13:34:38.961Z,64.32
2023-03-20T13:37:25.326Z,64.16
2023-03-20T13:40:04.469Z,63.50
2023-03-20T13:42:38.028Z,63.65
2023-03-20T13:45:12.236Z,63.92
2023-03-20T13:47:41.519Z,64.24
2023-03-20T13:50:25.145Z,63.61
2023-03-20T13:53:00.704Z,62.73
2023-03-20T13:55:39.777Z,63.56
2023-03-20T13:58:24.373Z,63.67
2023-03-20T14:01:00.428Z,63.80
2023-03-20T14:03:34.681Z,63.33
2023-03-20T14:06:03.031Z,64.13
2023-03-20T14:08:36.666Z,63.66
2023-03-20T14:11:14.949Z,63.33
2023-03-20T14:13:47.346Z,63.70
2023-03-20T14:16:18.192Z,64.21
2023-03-20T14:18:49.990Z,64.71
2023-03-20T14:21:21.687Z,64.68
2023-03-20T14:23:51.760Z,65.37
2023-03-20T14:26:23.940Z,66.19
2023-03-20T14:28:58.820Z,65.24
2023-03-20T14:31:31.070Z,65.01
2023-03-20T14:34:15.483Z,65.91
2023-03-20T14:36:52.670Z,66.53
2023-03-20T14:39:29.587Z,65.63
2023-03-20T14:42:12.335Z,65.60
2023-03-20T14:44:52.472Z,66.00
2023-03-20T14:47:29.636Z,65.45
2023-03-20T14:50:07.146Z,63.95
2023-03-20T14:52:46.364Z,63.35
2023-03-20T14:55:31.636Z,63.41
2023-03-20T14:58:04.045Z,64.41
2023-03-20T15:00:36.980Z,64.22
2023-03-20T15:03:11.310Z,64.62
2023-03-20T15:05:42.249Z,65.06
2023-03-20T15:08:14.467Z,65.50
2023-03-20T15:10:48.772Z,66.01
2023-03-20T15:13:17.853Z,66.52
2023-03-20T15:15:54.573Z,67.17
2023-03-20T15:18:24.510Z,66.80
2023-03-20T15:20:53.693Z,66.62
2023-03-20T15:23:21.424Z,66.97
2023-03-20T15:25:51.752Z,66.69
2023-03-20T15:28:23.089Z,67.00
2023-03-20T15:30:53.584Z,67.24
2023-03-20T15:33:29.693Z,67.16
2023-03-20T15:35:58.965Z,66.95
2023-03-20T15:38:31.318Z,65.75
2023-03-20T15:40:59.068Z,66.13
2023-03-20T15:43:28.933Z,66.13
2023-03-20T15:46:16.287Z,66.64
2023-03-20T15:48:48.622Z,67.32
2023-03-20T15:51:18.389Z,67.21
2023-03-20T15:53:48.586Z,67.53
2023-03-20T15:56:19.575Z,67.39
2023-03-20T15:58:52.300Z,67.61
2023-03-20T16:01:23.038Z,67.81
2023-03-20T16:03:51.964Z,68.35
2023-03-20T16:06:23.245Z,68.36
2023-03-20T16:08:59.383Z,68.49
2023-03-20T16:11:37.995Z,68.73
2023-03-20T16:14:07.709Z,69.25
2023-03-20T16:16:37.628Z,69.50
2023-03-20T16:19:06.699Z,69.79
2023-03-20T16:21:37.975Z,70.17
2023-03-20T16:24:11.334Z,71.13
2023-03-20T16:26:42.860Z,71.19
2023-03-20T16:29:14.478Z,71.64
2023-03-20T16:31:49.163Z,72.32
2023-03-20T16:34:20.511Z,72.91
2023-03-20T16:36:54.498Z,73.50
2023-03-20T16:39:24.738Z,74.00
2023-03-20T16:41:58.756Z,74.36
2023-03-20T16:44:30.941Z,74.67
2023-03-20T16:47:01.084Z,75.31
2023-03-20T16:50:04.409Z,75.44
2023-03-20T16:52:37.803Z,76.06
2023-03-20T16:55:06.607Z,76.28
2023-03-20T16:57:36.885Z,76.65
2023-03-20T17:00:09.487Z,76.78
2023-03-20T17:02:41.060Z,77.29
2023-03-20T17:05:14.197Z,77.56
2023-03-20T17:07:44.015Z,77.95
2023-03-20T17:10:20.160Z,78.52
2023-03-20T17:12:49.677Z,79.16
2023-03-20T17:15:20.799Z,79.74
2023-03-20T17:17:49.202Z,80.19
2023-03-20T17:20:21.446Z,80.19
2023-03-20T17:22:50.724Z,81.42
2023-03-20T17:25:18.522Z,81.70
2023-03-20T17:27:46.492Z,82.37
2023-03-20T17:30:18.360Z,82.66
2023-03-20T17:32:46.388Z,83.21
2023-03-20T17:35:14.572Z,83.84
2023-03-20T17:37:42.556Z,84.35
2023-03-20T17:40:19.222Z,84.76
2023-03-20T17:42:48.565Z,85.45
2023-03-20T17:45:20.686Z,86.33
2023-03-20T17:47:48.736Z,86.73
2023-03-20T17:50:21.128Z,87.03
2023-03-20T17:52:48.970Z,87.98
2023-03-20T17:55:18.247Z,89.05
2023-03-20T17:57:46.009Z,90.06
2023-03-20T18:00:18.970Z,90.01
2023-03-20T18:02:46.862Z,91.32
2023-03-20T18:05:15.084Z,91.37
2023-03-20T18:07:42.952Z,92.27
2023-03-20T18:10:20.877Z,92.03
2023-03-20T18:12:48.690Z,92.22
2023-03-20T18:15:16.731Z,92.93
2023-03-20T18:17:44.436Z,93.11
2023-03-20T18:20:24.380Z,93.37
2023-03-20T18:22:52.213Z,94.29
2023-03-20T18:25:22.246Z,94.66
2023-03-20T18:27:50.409Z,94.41
2023-03-20T18:30:20.775Z,93.69
2023-03-20T18:32:48.626Z,94.73
2023-03-20T18:35:16.842Z,95.44
2023-03-20T18:37:45.196Z,96.16
2023-03-20T18:40:19.751Z,96.97
2023-03-20T18:42:49.244Z,97.27
2023-03-20T18:45:17.025Z,97.97
2023-03-20T18:47:45.461Z,98.47
2023-03-20T18:50:24.971Z,98.69
2023-03-20T18:52:53.300Z,99.06
2023-03-20T18:55:23.043Z,99.13
2023-03-20T18:57:52.619Z,99.64
2023-03-20T19:00:23.268Z,99.89
2023-03-20T19:02:52.749Z,100.00
2023-03-20T19:05:20.508Z,100.00
2023-03-20T19:07:49.362Z,100.00
2023-03-20T19:10:26.643Z,100.00
2023-03-20T19:12:57.083Z,100.00
2023-03-20T19:15:27.112Z,100.00
2023-03-20T19:17:55.326Z,100.00
2023-03-20T19:20:30.970Z,100.00
2023-03-20T19:22:59.104Z,100.00
2023-03-20T19:25:26.892Z,100.00
2023-03-20T19:27:56.005Z,100.00
2023-03-20T19:30:30.546Z,100.00
2023-03-20T19:32:59.069Z,100.00
2023-03-20T19:38:17.381Z,100.00
2023-03-20T19:40:46.635Z,100.00
2023-03-20T19:43:16.334Z,100.00
2023-03-20T19:45:45.639Z,100.00
2023-03-20T19:48:16.590Z,100.00
2023-03-20T19:50:46.664Z,100.00
2023-03-20T19:53:17.611Z,100.00
2023-03-20T19:55:46.316Z,100.00
2023-03-20T19:58:15.468Z,100.00
2023-03-20T20:01:11.368Z,100.00
2023-03-20T20:03:32.151Z,100.00
2023-03-20T20:06:02.311Z,100.00
2023-03-20T20:08:45.232Z,100.00
2023-03-20T20:11:15.684Z,100.00
2023-03-20T20:14:05.208Z,100.00
2023-03-20T20:16:34.726Z,100.00
2023-03-20T20:19:02.691Z,100.00
2023-03-20T20:24:18.527Z,100.00
2023-03-20T20:26:54.523Z,100.00
2023-03-20T20:29:25.893Z,100.00
2023-03-20T20:31:53.728Z,100.00
2023-03-20T20:39:58.071Z,100.00
2023-03-20T20:42:26.379Z,100.00
2023-03-20T20:44:55.503Z,100.00
2023-03-20T20:47:23.285Z,100.00
2023-03-20T20:49:51.129Z,100.00
2023-03-20T20:52:18.941Z,100.00
2023-03-20T20:54:46.698Z,100.00
2023-03-20T20:57:15.132Z,100.00
2023-03-20T20:59:42.881Z,100.00
2023-03-20T21:02:13.008Z,100.00
2023-03-20T21:04:41.822Z,100.00
2023-03-20T21:07:12.691Z,100.00
2023-03-20T21:09:41.405Z,100.00
2023-03-20T21:12:10.521Z,100.00
2023-03-20T21:14:38.739Z,100.00
2023-03-20T21:17:07.855Z,100.00
2023-03-20T21:19:38.591Z,100.00
2023-03-20T21:22:08.102Z,100.00
2023-03-20T21:24:36.365Z,100.00
2023-03-20T21:27:06.805Z,100.00
2023-03-20T21:29:35.063Z,100.00
2023-03-20T21:32:02.887Z,100.00
2023-03-20T21:34:31.126Z,100.00
2023-03-20T21:37:23.855Z,100.00
2023-03-20T21:39:51.516Z,100.00
2023-03-20T21:42:21.151Z,100.00
2023-03-20T21:46:03.933Z,100.00
2023-03-20T21:51:18.840Z,100.00
2023-03-20T21:54:09.698Z,100.00
2023-03-20T21:56:48.557Z,100.00
2023-03-20T21:59:36.895Z,100.00
2023-03-20T22:02:02.473Z,100.00
2023-03-20T22:05:22.160Z,100.00
2023-03-20T22:07:52.069Z,100.00
2023-03-20T22:10:55.810Z,100.00
2023-03-20T22:13:37.234Z,100.00
2023-03-20T22:19:29.344Z,100.00
2023-03-20T22:22:13.758Z,100.00
2023-03-20T22:25:27.545Z,100.00
2023-03-20T22:28:22.413Z,100.00
2023-03-20T22:31:34.503Z,100.00
2023-03-20T22:37:24.599Z,100.00
2023-03-20T22:43:01.553Z,100.00
2023-03-20T22:45:42.559Z,100.00
2023-03-20T22:48:33.785Z,100.00
2023-03-20T22:51:52.244Z,100.00
2023-03-20T22:54:25.647Z,100.00
2023-03-20T22:57:11.678Z,100.00
2023-03-20T22:59:41.186Z,100.00
2023-03-20T23:02:09.209Z,100.00
2023-03-20T23:04:37.003Z,100.00
2023-03-20T23:07:05.656Z,100.00
2023-03-20T23:09:33.383Z,100.00
2023-03-20T23:12:19.432Z,100.00
2023-03-20T23:14:48.596Z,100.00
2023-03-20T23:17:34.657Z,100.00
2023-03-20T23:20:21.783Z,100.00
2023-03-20T23:22:49.607Z,100.00
2023-03-20T23:25:39.831Z,100.00
2023-03-20T23:28:08.748Z,100.00
2023-03-20T23:31:17.831Z,100.00
2023-03-20T23:33:49.277Z,100.00
2023-03-20T23:36:34.517Z,100.00
2023-03-20T23:39:22.264Z,100.00
2023-03-20T23:42:07.784Z,100.00
2023-03-20T23:45:02.169Z,100.00
2023-03-20T23:47:44.539Z,100.00
2023-03-20T23:50:42.837Z,100.00
2023-03-20T23:53:20.946Z,100.00
2023-03-20T23:55:50.498Z,100.00
2023-03-20T23:58:19.481Z,100.00
